Flight Track Log - Related Links

Times and Time Zones

All times are in EDT time to prevent confusion due to time zone crossing. See the CSN3209 flight status page for this flight to view local times or setup timezone preferences in your user account.

Time Position Orientation Groundspeed Altitude Reporting Facility
EDT Latitude Longitude Course Direction KTS MPH feet Rate Location/Type
Mon 01:20:00 AM 23.2001 114.4012 31° Northeast  Level Estimated
Mon 01:21:00 AM 23.3074 114.4728 32° Northeast  Level Estimated
Mon 01:22:00 AM 23.4146 114.5445 32° Northeast  Level Estimated
Mon 01:23:00 AM 23.5219 114.6163 32° Northeast  Level Estimated
Mon 01:24:00 AM 23.6290 114.6883 32° Northeast  Level Estimated
Mon 01:25:00 AM 23.7362 114.7603 32° Northeast  Level Estimated
Mon 01:26:00 AM 23.8433 114.8325 32° Northeast  Level Estimated
Mon 01:27:00 AM 23.9503 114.9048 32° Northeast  Level Estimated
Mon 01:28:00 AM 24.0574 114.9772 32° Northeast  Level Estimated
Mon 01:29:00 AM 24.1644 115.0498 32° Northeast  Level Estimated
Mon 01:30:00 AM 24.2714 115.1224 32° Northeast  Level Estimated
Mon 01:31:00 AM 24.3783 115.1952 32° Northeast  Level Estimated
Mon 01:32:00 AM 24.4852 115.2681 32° Northeast  Level Estimated
Mon 01:33:00 AM 24.5920 115.3411 32° Northeast  Level Estimated
Mon 01:34:00 AM 24.6989 115.4143 32° Northeast  Level Estimated
Mon 01:35:00 AM 24.8057 115.4876 32° Northeast  Level Estimated
Mon 01:36:00 AM 24.9124 115.5610 32° Northeast  Level Estimated
Mon 01:37:00 AM 25.0191 115.6345 32° Northeast  Level Estimated
Mon 01:38:00 AM 25.1258 115.7082 32° Northeast  Level Estimated
Mon 01:39:00 AM 25.2325 115.7820 32° Northeast  Level Estimated
Mon 01:40:00 AM 25.3391 115.8559 32° Northeast  Level Estimated
Mon 01:41:00 AM 25.4457 115.9299 32° Northeast  Level Estimated
Mon 01:42:00 AM 25.5522 116.0041 32° Northeast  Level Estimated
Mon 01:43:00 AM 25.6587 116.0784 32° Northeast  Level Estimated
Mon 01:44:00 AM 25.7652 116.1529 32° Northeast  Level Estimated
Mon 01:45:00 AM 25.8716 116.2275 32° Northeast  Level Estimated
Mon 01:46:00 AM 25.9780 116.3022 32° Northeast  Level Estimated
Mon 01:47:00 AM 26.0843 116.3770 32° Northeast  Level Estimated
Mon 01:48:00 AM 26.1906 116.4520 32° Northeast  Level Estimated
Mon 01:49:00 AM 26.2969 116.5271 32° Northeast  Level Estimated
Mon 01:50:00 AM 26.4031 116.6024 32° Northeast  Level Estimated
Mon 01:51:00 AM 26.5093 116.6778 32° Northeast  Level Estimated
Mon 01:52:00 AM 26.6155 116.7533 32° Northeast  Level Estimated
Mon 01:53:00 AM 26.7216 116.8290 32° Northeast  Level Estimated
Mon 01:54:00 AM 26.8277 116.9048 33° Northeast  Level Estimated
Mon 01:55:00 AM 26.9337 116.9808 33° Northeast  Level Estimated
Mon 01:56:00 AM 27.0397 117.0569 33° Northeast  Level Estimated
Mon 01:57:00 AM 27.1456 117.1332 33° Northeast  Level Estimated
Mon 01:58:00 AM 27.2515 117.2095 33° Northeast  Level Estimated
Mon 01:59:00 AM 27.3574 117.2861 33° Northeast  Level Estimated
Mon 02:00:00 AM 27.4632 117.3628 33° Northeast  Level Estimated
Mon 02:01:00 AM 27.5690 117.4396 33° Northeast  Level Estimated
Mon 02:02:00 AM 27.6747 117.5166 33° Northeast  Level Estimated
Mon 02:03:00 AM 27.7804 117.5937 33° Northeast  Level Estimated
Mon 02:04:00 AM 27.8861 117.6710 33° Northeast  Level Estimated
Mon 02:05:00 AM 27.9917 117.7484 33° Northeast  Level Estimated
Mon 02:06:00 AM 28.0973 117.8260 33° Northeast  Level Estimated
Mon 02:07:00 AM 28.2028 117.9038 33° Northeast  Level Estimated
Mon 02:08:00 AM 28.3083 117.9817 33° Northeast  Level Estimated
Mon 02:09:00 AM 28.4137 118.0597 33° Northeast  Level Estimated
Mon 02:10:00 AM 28.4961 118.1208 33° Northeast  Level Estimated
Mon 02:11:00 AM 28.5801 118.1832 33° Northeast  Level Estimated
Mon 02:12:00 AM 28.6640 118.2457 33° Northeast  Level Estimated
Mon 02:13:00 AM 28.7479 118.3083 33° Northeast  Level Estimated
Mon 02:14:00 AM 28.8317 118.3710 33° Northeast  Level Estimated
Mon 02:15:00 AM 28.9156 118.4338 33° Northeast  Level Estimated
Mon 02:16:00 AM 28.9993 118.4967 33° Northeast  Level Estimated
Mon 02:17:00 AM 29.0831 118.5596 33° Northeast  Level Estimated
Mon 02:18:00 AM 29.1668 118.6227 33° Northeast  Level Estimated
Mon 02:19:00 AM 29.2506 118.6859 33° Northeast  Level Estimated
Mon 02:20:00 AM 29.3342 118.7492 33° Northeast  Level Estimated
Mon 02:21:00 AM 29.4179 118.8126 33° Northeast  Level Estimated
Mon 02:22:00 AM 29.5015 118.8762 33° Northeast  Level Estimated
Mon 02:23:00 AM 29.5851 118.9398 33° Northeast  Level Estimated
Mon 02:24:00 AM 29.6686 119.0035 34° Northeast  Level Estimated
Mon 02:25:00 AM 29.7522 119.0673 34° Northeast  Level Estimated
Mon 02:26:00 AM 29.8357 119.1312 34° Northeast  Level Estimated
Mon 02:27:00 AM 29.9191 119.1953 34° Northeast  Level Estimated
Mon 02:28:00 AM 30.0026 119.2594 34° Northeast  Level Estimated
Mon 02:29:00 AM 30.0860 119.3237 34° Northeast  Level Estimated
Mon 02:30:00 AM 30.1693 119.3880 34° Northeast  Level Estimated
Mon 02:31:00 AM 30.2527 119.4525 34° Northeast  Level Estimated
Mon 02:32:00 AM 30.3360 119.5171 34° Northeast  Level Estimated
Mon 02:33:00 AM 30.4193 119.5818 34° Northeast  Level Estimated
Mon 02:34:00 AM 30.5025 119.6466 34° Northeast  Level Estimated
Mon 02:35:00 AM 30.5857 119.7115 34° Northeast  Level Estimated
Mon 02:36:00 AM 30.6689 119.7765 34° Northeast  Level Estimated
Mon 02:37:00 AM 30.7521 119.8417 34° Northeast  Level Estimated
Mon 02:38:00 AM 30.8352 119.9069 34° Northeast  Level Estimated
Mon 02:39:00 AM 30.9183 119.9723 34° Northeast  Level Estimated
Mon 02:40:00 AM 31.0013 120.0378 34° Northeast  Level Estimated
Mon 02:41:00 AM 31.0843 120.1033 34° Northeast  Level Estimated
Mon 02:42:00 AM 31.1673 120.1691 34° Northeast  Level Estimated
Mon 02:43:00 AM 31.2503 120.2349 34° Northeast  Level Estimated
Mon 02:44:00 AM 31.3332 120.3008 34° Northeast  Level Estimated
Mon 02:45:00 AM 31.4161 120.3669 34° Northeast  Level Estimated
Mon 02:46:00 AM 31.4944 120.4294 34° Northeast  Level Estimated
Mon 02:47:00 AM 31.4944 120.4294 North  Level Estimated
Mon 02:48:00 AM 31.4944 120.4294 North  Level Estimated
Mon 02:49:00 AM 31.4944 120.4294 North  Level Estimated
Mon 02:50:00 AM 31.4944 120.4294 North  Level Estimated
Mon 02:51:00 AM 31.4944 120.4294 North  Level Estimated
Mon 02:52:00 AM 31.4944 120.4294 North  Level Estimated
Mon 02:53:00 AM 31.4944 120.4294 North  Level Estimated
Mon 02:54:00 AM 31.4944 120.4294 North  Level Estimated
Mon 02:55:00 AM 31.4944 120.4294 North  Level Estimated
Mon 02:56:00 AM 31.4944 120.4294 North  Level Estimated
Mon 02:57:00 AM 31.4944 120.4294 North  Level Estimated
Mon 02:58:00 AM 31.4944 120.4294 North  Level Estimated
Mon 02:59:00 AM 31.4944 120.4294 North  Level Estimated
Mon 03:00:00 AM 31.4944 120.4294 North  Level Estimated
Mon 03:01:00 AM 31.4944 120.4294 North  Level Estimated
Mon 03:02:00 AM 31.4944 120.4294 North  Level Estimated
Mon 03:03:00 AM 31.4944 120.4294 North  Level Estimated
Mon 03:04:00 AM 31.4944 120.4294 North  Level Estimated
Mon 03:05:00 AM 31.4944 120.4294 North  Level Estimated
Mon 03:06:00 AM 31.4944 120.4294 North  Level Estimated
Mon 03:07:00 AM 31.4944 120.4294 North  Level Estimated
Mon 03:08:00 AM 31.4944 120.4294 North  Level Estimated
Mon 03:09:00 AM 31.4944 120.4294 North  Level Estimated
Mon 03:10:00 AM 31.4944 120.4294 North  Level Estimated

Login

Don't have an account? Register now (free) for customized features, flight alerts, and more!